Time;durP1;ratioP1;P1;durP2;ratioP2;P2;SDS_P1;SDS_P2;PMS_P1;PMS_P2;Temp;Humidity;BMP_temperature;BMP_pressure;BME280_temperature;BME280_humidity;BME280_pressure;Samples;Min_cycle;Max_cycle;Signal;HPM_P1;HPM_P2
2022/05/07 00:01:05;;;;;;;31.52;18.45;;;17.80;80.20;;;;;;5110649;28;20048;-73
2022/05/07 00:03:33;;;;;;;38.78;18.95;;;17.90;80.40;;;;;;5110263;28;20027;-73
2022/05/07 00:05:59;;;;;;;33.15;18.85;;;17.80;80.20;;;;;;5111751;28;20023;-73
2022/05/07 00:08:25;;;;;;;33.53;20.02;;;17.80;80.30;;;;;;5114671;28;20032;-73
2022/05/07 00:10:52;;;;;;;36.03;21.15;;;17.80;80.50;;;;;;5115698;28;20031;-73
2022/05/07 00:13:17;;;;;;;35.42;21.00;;;17.80;80.70;;;;;;5115273;28;20024;-73
2022/05/07 00:18:01;;;;;;;39.78;21.92;;;17.80;80.90;;;;;;5114974;27;20038;-73
2022/05/07 00:18:29;;;;;;;44.30;21.67;;;17.80;81.20;;;;;;5115468;28;20028;-72
2022/05/07 00:20:55;;;;;;;39.25;20.48;;;17.70;81.20;;;;;;5102112;28;20126;-76
2022/05/07 00:23:20;;;;;;;40.20;20.80;;;17.70;81.20;;;;;;5114332;28;20015;-73
2022/05/07 00:25:46;;;;;;;35.90;20.95;;;17.70;81.20;;;;;;5115101;28;20475;-73
2022/05/07 00:28:12;;;;;;;47.83;21.60;;;17.70;81.30;;;;;;5115281;28;20020;-73
2022/05/07 00:30:37;;;;;;;39.42;22.08;;;17.70;81.40;;;;;;5114076;28;20125;-73
2022/05/07 00:33:03;;;;;;;37.30;22.15;;;17.70;81.50;;;;;;5115064;28;20027;-73
2022/05/07 00:35:29;;;;;;;33.35;19.83;;;17.60;81.60;;;;;;5113011;28;20042;-73
2022/05/07 00:37:54;;;;;;;33.72;19.10;;;17.60;81.60;;;;;;5115038;28;20035;-72
2022/05/07 00:40:20;;;;;;;40.17;21.17;;;17.60;81.50;;;;;;5114877;28;20028;-73
2022/05/07 00:42:46;;;;;;;42.53;23.17;;;17.60;81.30;;;;;;5114313;28;20108;-73
2022/05/07 00:45:11;;;;;;;38.03;22.80;;;17.60;81.40;;;;;;5114767;28;20356;-73
2022/05/07 00:47:39;;;;;;;43.72;23.63;;;17.60;81.40;;;;;;5111908;28;20035;-73
2022/05/07 00:52:50;;;;;;;41.10;24.80;;;17.60;81.60;;;;;;5114492;28;20589;-73
2022/05/07 00:55:16;;;;;;;45.03;24.98;;;17.50;81.60;;;;;;5100295;28;20484;-74
2022/05/07 00:57:42;;;;;;;47.15;25.63;;;17.50;81.70;;;;;;5112994;28;20065;-73
2022/05/07 01:00:09;;;;;;;43.17;26.63;;;17.50;81.80;;;;;;5112921;28;20043;-73
2022/05/07 01:02:38;;;;;;;44.17;25.48;;;17.50;82.00;;;;;;5112260;28;20035;-73
2022/05/07 01:05:08;;;;;;;44.80;26.20;;;17.40;82.10;;;;;;5111550;28;20559;-73
2022/05/07 01:07:34;;;;;;;43.13;24.35;;;17.40;82.20;;;;;;5111875;28;20062;-73
2022/05/07 01:10:01;;;;;;;46.67;24.27;;;17.40;82.20;;;;;;5098342;28;20123;-73
2022/05/07 01:12:32;;;;;;;44.15;23.90;;;17.40;82.30;;;;;;5101144;28;20024;-73
2022/05/07 01:15:02;;;;;;;43.72;24.33;;;17.30;82.20;;;;;;5107872;28;20034;-73
2022/05/07 01:17:33;;;;;;;44.83;25.73;;;17.30;82.40;;;;;;5111573;28;20024;-73
2022/05/07 01:20:01;;;;;;;42.25;25.10;;;17.30;82.80;;;;;;5097400;28;20036;-73
2022/05/07 01:22:30;;;;;;;50.97;26.08;;;17.30;83.10;;;;;;5111613;28;20045;-73
2022/05/07 01:24:56;;;;;;;48.22;25.40;;;17.30;83.50;;;;;;5103636;28;20032;-73
2022/05/07 01:27:22;;;;;;;44.33;26.05;;;17.30;83.80;;;;;;5111699;28;20023;-73
2022/05/07 01:29:51;;;;;;;56.03;28.23;;;17.30;84.00;;;;;;5111276;28;20074;-73
2022/05/07 01:32:18;;;;;;;47.40;26.48;;;17.30;84.10;;;;;;5111769;28;20352;-73
2022/05/07 01:34:44;;;;;;;50.30;26.48;;;17.30;84.30;;;;;;5103857;28;20028;-73
2022/05/07 01:37:09;;;;;;;50.15;26.45;;;17.20;84.40;;;;;;5111185;28;20027;-72
2022/05/07 01:39:35;;;;;;;47.53;26.35;;;17.20;84.40;;;;;;5110316;28;20050;-72
2022/05/07 01:42:01;;;;;;;45.75;26.52;;;17.20;84.40;;;;;;5111291;28;20026;-72
2022/05/07 01:44:27;;;;;;;50.17;27.70;;;17.20;84.30;;;;;;5112560;28;20028;-71
2022/05/07 01:49:37;;;;;;;53.38;27.38;;;17.20;84.70;;;;;;5096816;28;20031;-71
2022/05/07 01:52:04;;;;;;;47.13;25.75;;;17.20;84.80;;;;;;5107951;28;20031;-71
2022/05/07 01:54:31;;;;;;;52.47;26.73;;;17.20;84.90;;;;;;5107072;28;20023;-72
2022/05/07 01:56:58;;;;;;;51.35;27.90;;;17.20;85.00;;;;;;5106335;28;20467;-71
2022/05/07 01:59:27;;;;;;;47.96;26.06;;;17.20;85.20;;;;;;5093700;28;1063111;-63
2022/05/07 02:01:56;;;;;;;52.30;26.90;;;17.20;85.30;;;;;;5111079;28;20028;-72
2022/05/07 02:04:22;;;;;;;45.50;26.17;;;17.20;85.40;;;;;;5111804;28;20028;-72
2022/05/07 02:06:48;;;;;;;53.80;26.08;;;17.20;85.50;;;;;;5112009;28;20562;-72
2022/05/07 02:09:18;;;;;;;54.92;28.48;;;17.20;85.70;;;;;;5109289;28;20046;-72
2022/05/07 02:11:44;;;;;;;47.72;26.80;;;17.10;85.80;;;;;;5100710;28;20028;-72
2022/05/07 02:14:10;;;;;;;59.67;27.10;;;17.10;86.00;;;;;;5095235;28;20360;-72
2022/05/07 02:16:37;;;;;;;50.55;26.58;;;17.10;86.10;;;;;;5100061;28;20024;-72
2022/05/07 02:19:02;;;;;;;53.90;27.42;;;17.10;86.30;;;;;;5109798;28;20028;-72
2022/05/07 02:21:28;;;;;;;46.35;25.40;;;17.10;86.40;;;;;;5112065;28;20042;-72
2022/05/07 02:23:54;;;;;;;45.17;25.92;;;17.10;86.50;;;;;;5106109;28;20030;-72
2022/05/07 02:26:20;;;;;;;55.67;27.33;;;17.10;86.70;;;;;;5102037;28;20050;-72
2022/05/07 02:28:47;;;;;;;44.90;26.30;;;17.10;87.40;;;;;;5110160;28;20036;-71
2022/05/07 02:31:13;;;;;;;47.45;24.95;;;17.10;87.00;;;;;;5112509;28;20028;-71
2022/05/07 02:33:39;;;;;;;50.10;25.88;;;17.10;86.90;;;;;;5111486;28;20027;-71
2022/05/07 02:36:10;;;;;;;47.42;25.20;;;17.10;87.00;;;;;;5105100;28;20032;-71
2022/05/07 02:38:38;;;;;;;43.80;25.05;;;17.00;87.10;;;;;;5104972;28;20036;-71
2022/05/07 02:43:49;;;;;;;43.17;24.73;;;17.00;87.30;;;;;;5110419;28;20051;-71
2022/05/07 02:46:17;;;;;;;47.67;26.55;;;17.00;87.30;;;;;;5111068;28;20024;-72
2022/05/07 02:48:46;;;;;;;50.53;25.50;;;17.00;87.40;;;;;;5106647;28;20031;-71
2022/05/07 02:51:14;;;;;;;43.15;23.42;;;17.00;87.50;;;;;;5102949;28;20479;-71
2022/05/07 02:53:41;;;;;;;47.33;25.25;;;17.00;87.40;;;;;;5110938;28;20027;-71
2022/05/07 02:56:10;;;;;;;44.75;24.33;;;17.00;87.40;;;;;;5110855;28;20034;-72
2022/05/07 02:58:38;;;;;;;44.15;23.17;;;17.00;87.20;;;;;;5112005;28;20027;-72
2022/05/07 03:01:04;;;;;;;43.17;24.67;;;17.00;87.10;;;;;;5109240;28;20479;-72
2022/05/07 03:03:30;;;;;;;42.95;23.95;;;17.00;86.80;;;;;;5111253;28;20034;-72
2022/05/07 03:06:01;;;;;;;52.88;25.58;;;16.90;86.90;;;;;;5111014;28;20019;-72
2022/05/07 03:08:27;;;;;;;46.60;24.50;;;17.00;87.10;;;;;;5097019;28;20051;-72
2022/05/07 03:10:53;;;;;;;40.88;23.48;;;17.00;87.40;;;;;;5111503;27;20124;-72
2022/05/07 03:13:18;;;;;;;44.47;23.85;;;17.00;87.20;;;;;;5111295;28;20469;-71
2022/05/07 03:15:44;;;;;;;47.50;23.90;;;17.00;87.10;;;;;;5101376;28;20051;-72
2022/05/07 03:18:13;;;;;;;41.95;21.85;;;16.90;86.90;;;;;;5089522;28;20550;-72
2022/05/07 03:20:40;;;;;;;44.63;23.02;;;16.90;86.60;;;;;;5102292;28;20119;-72
2022/05/07 03:23:06;;;;;;;44.45;25.15;;;16.90;86.60;;;;;;5111647;28;20049;-72
2022/05/07 03:25:32;;;;;;;42.30;23.35;;;16.90;86.80;;;;;;5109907;28;20041;-72
2022/05/07 03:28:00;;;;;;;43.95;24.77;;;16.80;86.80;;;;;;5111949;28;20085;-71
2022/05/07 03:30:26;;;;;;;46.78;23.13;;;16.90;87.00;;;;;;5097176;28;20039;-72
2022/05/07 03:32:59;;;;;;;43.70;22.98;;;16.90;87.10;;;;;;5109872;28;20020;-72
2022/05/07 03:35:25;;;;;;;47.47;23.35;;;16.90;87.20;;;;;;5111413;28;20042;-72
2022/05/07 03:37:57;;;;;;;41.92;23.30;;;16.90;87.10;;;;;;5111702;28;20030;-72
2022/05/07 03:40:23;;;;;;;44.15;24.33;;;16.80;87.40;;;;;;5110594;28;20035;-72
2022/05/07 03:42:51;;;;;;;47.08;24.55;;;16.90;87.80;;;;;;5110340;28;20031;-72
2022/05/07 03:45:17;;;;;;;43.78;26.00;;;16.80;88.00;;;;;;5109982;28;20026;-72
2022/05/07 03:47:45;;;;;;;43.60;24.73;;;16.90;88.40;;;;;;5099254;28;20406;-72
2022/05/07 03:50:13;;;;;;;42.33;25.05;;;16.90;88.50;;;;;;5107504;28;20062;-67
2022/05/07 03:55:25;;;;;;;41.17;24.23;;;16.90;88.80;;;;;;5110096;28;20023;-72
2022/05/07 03:57:51;;;;;;;41.25;23.73;;;16.80;88.80;;;;;;5109971;28;20068;-72
2022/05/07 04:00:21;;;;;;;43.95;24.83;;;16.80;89.00;;;;;;5109009;28;20146;-72
2022/05/07 04:02:54;;;;;;;43.60;25.35;;;16.80;89.20;;;;;;5109175;28;20028;-72
2022/05/07 04:05:34;;;;;;;39.00;24.00;;;16.90;89.40;;;;;;5090298;28;20372;-71
2022/05/07 04:08:17;;;;;;;42.92;24.63;;;16.80;89.40;;;;;;5104200;28;20054;-71
2022/05/07 04:10:43;;;;;;;46.13;25.55;;;16.90;89.60;;;;;;5110031;28;20151;-72
2022/05/07 04:13:12;;;;;;;46.15;26.17;;;16.90;89.70;;;;;;5096274;28;20024;-71
2022/05/07 04:15:39;;;;;;;43.40;23.13;;;16.80;89.80;;;;;;5110594;28;20602;-72
2022/05/07 04:18:09;;;;;;;44.45;25.25;;;16.80;89.80;;;;;;5109871;28;20020;-71
2022/05/07 04:20:38;;;;;;;47.40;25.90;;;16.80;89.80;;;;;;5109475;28;20054;-71
2022/05/07 04:23:08;;;;;;;42.55;23.58;;;16.80;89.80;;;;;;5109930;28;20138;-71
2022/05/07 04:25:34;;;;;;;44.83;24.05;;;16.80;89.80;;;;;;5110005;28;20564;-71
2022/05/07 04:28:00;;;;;;;41.78;24.05;;;16.80;89.70;;;;;;5109092;28;20024;-71
2022/05/07 04:30:27;;;;;;;45.38;26.30;;;16.70;89.70;;;;;;5111232;28;20066;-72
2022/05/07 04:32:53;;;;;;;46.22;25.65;;;16.70;89.70;;;;;;5103225;28;20107;-70
2022/05/07 04:35:20;;;;;;;48.88;24.92;;;16.70;89.70;;;;;;5102616;28;20032;-71
2022/05/07 04:37:46;;;;;;;42.40;26.02;;;16.80;89.80;;;;;;5109939;28;20023;-71
2022/05/07 04:40:12;;;;;;;45.42;26.88;;;16.70;89.80;;;;;;5109500;28;20031;-71
2022/05/07 04:42:39;;;;;;;46.45;25.73;;;16.70;89.80;;;;;;5109029;28;20035;-71
2022/05/07 04:45:06;;;;;;;46.38;26.38;;;16.70;89.80;;;;;;5109527;28;20056;-72
2022/05/07 04:47:54;;;;;;;48.97;26.17;;;16.70;89.90;;;;;;5111134;28;20093;-71
2022/05/07 04:50:25;;;;;;;47.63;26.45;;;16.70;89.90;;;;;;5108745;28;20047;-71
2022/05/07 04:52:59;;;;;;;43.63;25.27;;;16.70;90.00;;;;;;5111461;28;20126;-71
2022/05/07 04:55:28;;;;;;;48.08;25.77;;;16.70;90.00;;;;;;5113321;28;20039;-71
2022/05/07 04:57:56;;;;;;;45.40;25.83;;;16.70;90.00;;;;;;5113909;27;20509;-70
2022/05/07 05:00:26;;;;;;;47.97;26.48;;;16.70;90.10;;;;;;5111859;28;20042;-70
2022/05/07 05:03:07;;;;;;;53.65;28.13;;;16.70;90.10;;;;;;5100186;28;20027;-70
2022/05/07 05:05:34;;;;;;;47.53;26.85;;;16.70;90.10;;;;;;5113373;28;20050;-72
2022/05/07 05:08:13;;;;;;;50.25;27.38;;;16.70;90.10;;;;;;5113119;28;20032;-73
2022/05/07 05:10:39;;;;;;;51.92;28.75;;;16.70;90.10;;;;;;5112770;28;20191;-71
2022/05/07 05:13:05;;;;;;;48.08;27.27;;;16.70;90.10;;;;;;5112983;28;20051;-72
2022/05/07 05:15:32;;;;;;;55.92;27.50;;;16.70;90.20;;;;;;5109715;28;20028;-71
2022/05/07 05:18:04;;;;;;;51.38;26.30;;;16.70;90.20;;;;;;5109146;28;20474;-71
2022/05/07 05:20:33;;;;;;;50.80;27.92;;;16.70;90.30;;;;;;5112987;28;20514;-71
2022/05/07 05:23:06;;;;;;;49.67;26.10;;;16.70;90.30;;;;;;5113105;28;20019;-72
2022/05/07 05:25:43;;;;;;;48.28;26.38;;;16.80;90.40;;;;;;5112614;28;20578;-73
2022/05/07 05:28:12;;;;;;;48.67;25.75;;;16.70;90.40;;;;;;5113001;28;20050;-75
2022/05/07 05:30:40;;;;;;;52.35;26.13;;;16.70;90.40;;;;;;5107191;28;20482;-71
2022/05/07 05:33:10;;;;;;;46.50;26.95;;;16.70;90.40;;;;;;5093277;28;20027;-71
2022/05/07 05:35:40;;;;;;;47.35;26.60;;;16.70;90.40;;;;;;5104631;28;20090;-71
2022/05/07 05:38:06;;;;;;;48.55;27.20;;;16.80;90.50;;;;;;5098855;28;20099;-71
2022/05/07 05:40:32;;;;;;;51.28;26.70;;;16.80;90.60;;;;;;5095256;28;20107;-72
2022/05/07 05:42:58;;;;;;;49.55;27.67;;;16.80;90.70;;;;;;5095975;28;20499;-71
2022/05/07 05:45:24;;;;;;;48.60;26.90;;;16.80;90.90;;;;;;5096012;28;20051;-71
2022/05/07 05:47:51;;;;;;;47.58;27.38;;;16.80;90.90;;;;;;5111320;27;20051;-71
2022/05/07 05:50:16;;;;;;;52.95;28.65;;;16.80;91.00;;;;;;5090722;28;20040;-71
2022/05/07 05:52:46;;;;;;;47.70;27.83;;;16.80;91.10;;;;;;5097348;28;20039;-71
2022/05/07 05:55:12;;;;;;;47.60;27.55;;;16.80;91.20;;;;;;5090577;28;20032;-71
2022/05/07 05:57:41;;;;;;;54.00;27.05;;;16.80;91.20;;;;;;5093041;28;20021;-71
2022/05/07 06:00:07;;;;;;;48.33;27.35;;;16.90;91.30;;;;;;5093855;28;20040;-71
2022/05/07 06:02:39;;;;;;;46.05;27.35;;;16.90;91.30;;;;;;5092083;28;20174;-71
2022/05/07 06:05:13;;;;;;;54.05;29.08;;;16.90;91.40;;;;;;5091969;28;20024;-71
2022/05/07 06:07:45;;;;;;;54.75;29.48;;;16.90;91.50;;;;;;5106589;28;20491;-71
2022/05/07 06:10:11;;;;;;;51.47;29.20;;;16.90;91.60;;;;;;5090111;28;20046;-71
2022/05/07 06:12:36;;;;;;;50.80;28.40;;;16.90;91.60;;;;;;5107426;28;20020;-72
2022/05/07 06:15:04;;;;;;;51.35;27.17;;;16.90;91.60;;;;;;5091223;28;20016;-72
2022/05/07 06:17:31;;;;;;;52.35;28.30;;;16.90;91.60;;;;;;5090220;28;20123;-72
2022/05/07 06:19:57;;;;;;;48.83;27.02;;;17.00;91.70;;;;;;5095795;28;20028;-72
2022/05/07 06:22:23;;;;;;;48.22;26.45;;;16.90;91.70;;;;;;5092449;28;20028;-72
2022/05/07 06:27:56;;;;;;;45.58;26.33;;;16.90;91.60;;;;;;5100857;28;20054;-72
2022/05/07 06:30:35;;;;;;;45.90;23.73;;;16.90;91.60;;;;;;5094131;28;20048;-71
2022/05/07 06:33:02;;;;;;;43.63;22.50;;;17.00;91.40;;;;;;5091565;28;20020;-72
2022/05/07 06:35:35;;;;;;;39.55;23.08;;;17.00;90.70;;;;;;5093301;28;20388;-72
2022/05/07 06:38:12;;;;;;;45.15;22.77;;;16.90;90.20;;;;;;5092741;28;20629;-71
2022/05/07 06:40:41;;;;;;;40.15;21.27;;;16.90;89.70;;;;;;5103376;28;20039;-71
2022/05/07 06:43:06;;;;;;;39.13;23.60;;;16.80;89.50;;;;;;5110778;28;20081;-71
2022/05/07 06:45:46;;;;;;;44.47;25.13;;;16.80;90.20;;;;;;5111216;28;20123;-71
2022/05/07 06:48:13;;;;;;;47.50;26.60;;;16.80;90.60;;;;;;5111151;28;20015;-71
2022/05/07 06:50:40;;;;;;;46.17;24.92;;;16.90;90.90;;;;;;5110908;28;20541;-71
2022/05/07 06:53:08;;;;;;;51.47;26.40;;;17.00;91.00;;;;;;5102137;28;20028;-72
2022/05/07 06:55:54;;;;;;;47.90;24.75;;;17.00;91.10;;;;;;5107063;28;20043;-71
2022/05/07 06:58:19;;;;;;;49.72;26.88;;;17.00;91.20;;;;;;5112190;28;20042;-72
2022/05/07 07:00:45;;;;;;;47.25;26.33;;;17.10;91.30;;;;;;5111906;28;20051;-71
2022/05/07 07:03:10;;;;;;;53.53;27.67;;;17.10;91.30;;;;;;5111510;28;20070;-72
2022/05/07 07:05:39;;;;;;;53.70;28.08;;;17.10;91.40;;;;;;5111998;28;20058;-73
2022/05/07 07:08:05;;;;;;;55.65;27.42;;;17.20;91.50;;;;;;5112104;28;20067;-72
2022/05/07 07:10:30;;;;;;;48.85;25.08;;;17.30;91.50;;;;;;5111001;28;20082;-72
2022/05/07 07:12:56;;;;;;;47.70;26.50;;;17.30;91.40;;;;;;5112426;28;20028;-72
2022/05/07 07:15:23;;;;;;;48.42;26.30;;;17.40;91.40;;;;;;5089161;28;20391;-72
2022/05/07 07:17:49;;;;;;;49.70;26.10;;;17.40;91.40;;;;;;5089331;28;20030;-71
2022/05/07 07:20:15;;;;;;;51.67;26.55;;;17.50;91.50;;;;;;5089892;28;20052;-71
2022/05/07 07:22:41;;;;;;;44.85;25.42;;;17.50;91.40;;;;;;5089382;28;20036;-71
2022/05/07 07:25:07;;;;;;;47.97;26.85;;;17.50;91.40;;;;;;5089184;28;20115;-71
2022/05/07 07:27:34;;;;;;;48.00;26.23;;;17.50;91.40;;;;;;5089770;28;20068;-71
2022/05/07 07:30:00;;;;;;;46.72;24.67;;;17.50;91.30;;;;;;5090013;28;20050;-72
2022/05/07 07:32:27;;;;;;;46.63;25.08;;;17.60;91.30;;;;;;5089272;28;20387;-72
2022/05/07 07:34:52;;;;;;;47.47;24.17;;;17.60;91.30;;;;;;5097085;28;20038;-72
2022/05/07 07:37:18;;;;;;;41.60;24.15;;;17.60;91.20;;;;;;5099910;28;20032;-72
2022/05/07 07:39:44;;;;;;;43.75;23.00;;;17.60;91.20;;;;;;5108014;28;20471;-72
2022/05/07 07:42:10;;;;;;;44.70;24.40;;;17.70;91.10;;;;;;5099906;28;20365;-73
2022/05/07 07:44:38;;;;;;;41.35;24.92;;;17.70;91.20;;;;;;5088408;28;20129;-72
2022/05/07 07:49:50;;;;;;;47.97;24.58;;;17.70;91.30;;;;;;5098611;28;20123;-72
2022/05/07 07:52:16;;;;;;;48.05;26.08;;;17.60;91.20;;;;;;5099098;28;20663;-72
2022/05/07 07:54:42;;;;;;;47.47;23.95;;;17.70;91.30;;;;;;5099412;28;20039;-72
2022/05/07 07:57:07;;;;;;;39.40;22.80;;;17.70;91.30;;;;;;5095605;28;20107;-72
2022/05/07 07:59:33;;;;;;;39.90;23.05;;;17.70;91.30;;;;;;5092938;28;20107;-72
2022/05/07 08:01:59;;;;;;;51.28;23.33;;;17.70;91.30;;;;;;5097794;28;20783;-75
2022/05/07 08:04:27;;;;;;;41.88;23.65;;;17.70;91.30;;;;;;5093652;28;20028;-72
2022/05/07 08:12:22;;;;;;;42.67;23.17;;;17.70;91.30;;;;;;5091824;28;20046;-75
2022/05/07 08:14:48;;;;;;;43.25;23.00;;;17.70;91.20;;;;;;5086312;28;20020;-75
2022/05/07 08:17:15;;;;;;;45.70;23.25;;;17.70;91.10;;;;;;5086997;28;20047;-76
2022/05/07 08:19:40;;;;;;;48.30;24.48;;;17.70;91.20;;;;;;5088343;28;20043;-72
2022/05/07 08:22:06;;;;;;;48.83;25.98;;;17.70;91.20;;;;;;5093873;28;20023;-70
2022/05/07 08:24:32;;;;;;;51.28;26.35;;;17.70;91.20;;;;;;5093001;28;20104;-70
2022/05/07 08:26:57;;;;;;;49.28;26.10;;;17.70;91.30;;;;;;5087498;28;20127;-70
2022/05/07 08:29:24;;;;;;;48.90;26.52;;;17.70;91.30;;;;;;5091145;28;20860;-70
2022/05/07 08:31:50;;;;;;;54.25;26.98;;;17.70;91.40;;;;;;5094323;28;20056;-70
2022/05/07 08:34:16;;;;;;;59.60;29.63;;;17.70;91.60;;;;;;5092678;28;20023;-70
2022/05/07 08:36:42;;;;;;;60.63;30.00;;;17.70;91.70;;;;;;5091370;28;20020;-70
2022/05/07 08:39:08;;;;;;;56.63;29.10;;;17.70;91.80;;;;;;5093167;28;20464;-70
2022/05/07 08:41:35;;;;;;;60.83;31.80;;;17.70;91.80;;;;;;5091689;28;20031;-70
2022/05/07 08:44:02;;;;;;;64.80;31.73;;;17.70;91.90;;;;;;5091065;28;20040;-70
2022/05/07 08:46:28;;;;;;;69.47;32.65;;;17.70;91.90;;;;;;5092496;28;20376;-70
2022/05/07 08:48:54;;;;;;;64.90;31.17;;;17.80;92.00;;;;;;5102418;28;20043;-70
2022/05/07 08:51:21;;;;;;;67.90;31.55;;;17.70;91.90;;;;;;5101423;28;20782;-74
2022/05/07 08:53:49;;;;;;;64.15;29.20;;;17.80;92.00;;;;;;5107573;28;20103;-75
2022/05/07 08:56:15;;;;;;;66.55;31.20;;;17.70;92.00;;;;;;5099770;28;20547;-73
2022/05/07 08:58:51;;;;;;;64.68;30.02;;;17.70;92.00;;;;;;5102198;28;20383;-70
2022/05/07 09:01:17;;;;;;;66.20;31.35;;;17.70;92.00;;;;;;5113996;28;20071;-70
2022/05/07 09:03:46;;;;;;;62.90;29.92;;;17.70;91.90;;;;;;5113766;28;20187;-71
2022/05/07 09:06:18;;;;;;;59.05;29.25;;;17.70;92.00;;;;;;5114440;28;20105;-71
2022/05/07 09:08:51;;;;;;;64.38;27.25;;;17.80;92.00;;;;;;5114114;28;20042;-71
2022/05/07 09:11:18;;;;;;;59.40;31.23;;;17.80;91.90;;;;;;5113641;28;20039;-71
2022/05/07 09:13:45;;;;;;;71.10;31.20;;;17.80;91.90;;;;;;5114352;28;20427;-71
2022/05/07 09:16:11;;;;;;;60.40;30.90;;;17.90;91.90;;;;;;5113499;28;20122;-71
2022/05/07 09:18:36;;;;;;;56.42;27.77;;;17.80;91.80;;;;;;5113179;28;20165;-71
2022/05/07 09:21:27;;;;;;;55.05;28.27;;;17.80;91.70;;;;;;5113868;28;20031;-71
2022/05/07 09:23:55;;;;;;;63.28;30.02;;;17.90;91.80;;;;;;5113063;28;20489;-71
2022/05/07 09:26:37;;;;;;;57.50;29.13;;;18.00;91.70;;;;;;5098526;28;20039;-71
2022/05/07 09:29:08;;;;;;;61.47;30.55;;;18.00;91.80;;;;;;5093842;28;20036;-71
2022/05/07 09:31:35;;;;;;;51.40;25.85;;;18.00;91.60;;;;;;5093544;28;20028;-71
2022/05/07 09:36:57;;;;;;;44.50;20.70;;;18.10;91.60;;;;;;5113993;28;20054;-71
2022/05/07 09:39:30;;;;;;;66.05;29.75;;;18.10;91.50;;;;;;5112613;28;20475;-71
2022/05/07 09:41:58;;;;;;;50.97;27.17;;;18.10;91.50;;;;;;5113751;27;20102;-71
2022/05/07 09:44:27;;;;;;;54.67;26.15;;;18.20;91.20;;;;;;5112628;28;20742;-71
2022/05/07 09:46:57;;;;;;;52.78;25.50;;;18.20;91.20;;;;;;5114047;28;20038;-71
2022/05/07 09:49:25;;;;;;;55.40;24.02;;;18.30;91.20;;;;;;5113059;27;20065;-71
2022/05/07 09:51:53;;;;;;;51.88;25.88;;;18.40;91.00;;;;;;5113197;28;20067;-70
2022/05/07 09:59:51;;;;;;;42.10;19.40;;;18.50;90.50;;;;;;5105339;28;20093;-71
2022/05/07 10:02:31;;;;;;;41.63;21.92;;;18.60;90.30;;;;;;5113126;28;20052;-71
2022/05/07 10:05:18;;;;;;;41.22;22.45;;;18.70;90.20;;;;;;5113298;28;20028;-71
2022/05/07 10:08:13;;;;;;;46.13;21.50;;;18.80;90.00;;;;;;5113456;28;20039;-70
2022/05/07 10:10:40;;;;;;;37.70;19.73;;;18.80;90.00;;;;;;5102779;28;20136;-71
2022/05/07 10:13:07;;;;;;;38.22;18.52;;;18.90;89.70;;;;;;5112513;28;20032;-71
2022/05/07 10:15:34;;;;;;;31.98;15.18;;;18.90;89.70;;;;;;5113214;28;20035;-72
2022/05/07 10:18:07;;;;;;;31.83;15.30;;;18.90;89.60;;;;;;5100116;28;20038;-71
2022/05/07 10:20:44;;;;;;;27.63;12.48;;;18.90;89.40;;;;;;5089947;28;20048;-73
2022/05/07 10:23:15;;;;;;;23.42;11.77;;;18.90;89.20;;;;;;5091685;28;20028;-71
2022/05/07 10:25:43;;;;;;;24.75;11.63;;;18.90;88.60;;;;;;5090201;28;20587;-71
2022/05/07 10:28:14;;;;;;;26.27;14.27;;;18.90;88.60;;;;;;5088880;28;20040;-71
2022/05/07 10:30:52;;;;;;;27.02;14.65;;;18.90;88.60;;;;;;5090528;28;20054;-72
2022/05/07 10:33:20;;;;;;;23.75;11.45;;;18.90;88.70;;;;;;5090959;28;20035;-71
2022/05/07 10:35:58;;;;;;;23.23;11.07;;;18.80;88.60;;;;;;5088484;28;20031;-71
2022/05/07 10:38:26;;;;;;;20.00;9.77;;;18.80;88.70;;;;;;5089852;28;20035;-71
2022/05/07 10:41:04;;;;;;;24.98;10.73;;;18.80;89.00;;;;;;5088396;28;20509;-71
2022/05/07 10:43:35;;;;;;;20.67;11.18;;;18.80;89.00;;;;;;5088368;28;20028;-71
2022/05/07 10:46:01;;;;;;;25.25;13.35;;;18.80;89.20;;;;;;5086842;28;20087;-72
2022/05/07 10:48:27;;;;;;;22.60;12.20;;;18.80;89.40;;;;;;5089272;28;20060;-72
2022/05/07 10:51:00;;;;;;;22.88;11.05;;;18.80;89.50;;;;;;5089750;28;20036;-73
2022/05/07 10:53:38;;;;;;;27.43;13.83;;;18.80;89.70;;;;;;5086789;28;20107;-71
2022/05/07 10:56:10;;;;;;;28.63;15.00;;;18.80;89.60;;;;;;5087770;28;20034;-71
2022/05/07 10:58:36;;;;;;;26.38;13.70;;;18.90;89.60;;;;;;5087800;28;20039;-72
2022/05/07 11:01:03;;;;;;;23.10;12.43;;;18.90;89.60;;;;;;5089224;28;20048;-72
2022/05/07 11:03:29;;;;;;;26.13;12.85;;;19.00;89.70;;;;;;5086814;28;20526;-73
2022/05/07 11:06:02;;;;;;;23.80;12.57;;;18.90;89.70;;;;;;5092158;28;20043;-73
2022/05/07 11:08:30;;;;;;;22.88;12.57;;;18.90;89.10;;;;;;5088024;28;20044;-73
2022/05/07 11:11:07;;;;;;;25.60;11.65;;;19.00;89.20;;;;;;5091637;28;20047;-73
2022/05/07 11:13:57;;;;;;;24.40;10.52;;;19.00;89.00;;;;;;5087191;28;20027;-73
2022/05/07 11:16:24;;;;;;;19.27;9.93;;;19.00;89.80;;;;;;5085798;28;20036;-73
2022/05/07 11:18:53;;;;;;;17.40;10.35;;;19.00;89.10;;;;;;5089872;28;20031;-73
2022/05/07 11:21:23;;;;;;;16.95;8.68;;;19.10;89.00;;;;;;5090510;28;20024;-73
2022/05/07 11:23:58;;;;;;;10.15;6.03;;;19.10;88.80;;;;;;5088504;28;20039;-73
2022/05/07 11:26:25;;;;;;;12.27;7.15;;;19.10;88.30;;;;;;5088360;28;20483;-73
2022/05/07 11:28:51;;;;;;;9.65;5.50;;;19.10;88.70;;;;;;5088009;28;20031;-73
2022/05/07 11:31:31;;;;;;;8.68;4.85;;;19.10;88.80;;;;;;5087380;28;20059;-73
2022/05/07 11:34:08;;;;;;;12.80;5.88;;;19.10;89.00;;;;;;5085860;28;20472;-74
2022/05/07 11:36:38;;;;;;;8.30;4.63;;;19.10;88.90;;;;;;5087857;28;20633;-74
2022/05/07 11:39:06;;;;;;;12.75;6.65;;;19.10;89.10;;;;;;5088520;28;20027;-74
2022/05/07 11:41:33;;;;;;;13.40;6.38;;;19.20;89.40;;;;;;5089636;28;20024;-76
2022/05/07 11:46:52;;;;;;;7.30;4.53;;;19.10;88.50;;;;;;5094248;28;20386;-75
2022/05/07 11:49:33;;;;;;;11.23;5.65;;;19.10;88.70;;;;;;5091429;28;20036;-75
2022/05/07 11:52:14;;;;;;;11.90;5.72;;;19.10;89.10;;;;;;5088958;28;20035;-75
2022/05/07 11:54:50;;;;;;;8.85;5.18;;;19.10;89.30;;;;;;5089258;28;20502;-75
2022/05/07 11:57:34;;;;;;;11.02;6.93;;;19.10;89.70;;;;;;5092065;28;20050;-75
2022/05/07 12:00:16;;;;;;;12.90;7.18;;;19.10;89.70;;;;;;5090231;28;20462;-73
2022/05/07 12:03:00;;;;;;;11.85;6.47;;;19.10;90.00;;;;;;5096231;28;20057;-76
2022/05/07 12:05:37;;;;;;;14.98;8.93;;;19.10;90.00;;;;;;5093410;28;20056;-75
2022/05/07 12:08:18;;;;;;;14.18;8.07;;;19.10;90.20;;;;;;5102583;28;20106;-73
2022/05/07 12:10:45;;;;;;;14.98;7.40;;;19.20;90.00;;;;;;5100325;28;20047;-73
2022/05/07 12:13:14;;;;;;;16.95;7.93;;;19.20;90.00;;;;;;5093621;28;20751;-73
2022/05/07 12:18:24;;;;;;;12.73;7.22;;;19.30;89.90;;;;;;5093640;28;20047;-72
2022/05/07 12:20:51;;;;;;;12.02;6.78;;;19.40;89.40;;;;;;5095085;28;20027;-72
2022/05/07 12:31:30;;;;;;;17.35;8.85;;;19.60;90.00;;;;;;5095141;28;20403;-75
2022/05/07 12:33:59;;;;;;;21.23;11.18;;;19.60;90.00;;;;;;5094047;28;20024;-72
2022/05/07 12:36:26;;;;;;;17.50;9.57;;;19.60;89.40;;;;;;5098890;28;20142;-73
2022/05/07 12:38:52;;;;;;;18.88;10.38;;;19.60;89.90;;;;;;5101565;28;20024;-73
2022/05/07 12:41:18;;;;;;;19.13;10.85;;;19.60;89.30;;;;;;5092294;28;20036;-74
2022/05/07 12:43:44;;;;;;;18.75;11.05;;;19.70;89.40;;;;;;5094234;28;20498;-72
2022/05/07 12:46:10;;;;;;;18.42;10.75;;;19.70;89.00;;;;;;5095854;28;20380;-72
2022/05/07 12:48:36;;;;;;;21.75;11.40;;;19.70;89.30;;;;;;5091553;28;20569;-75
2022/05/07 12:51:03;;;;;;;19.70;10.82;;;19.70;89.30;;;;;;5089921;28;20146;-73
2022/05/07 12:53:29;;;;;;;21.60;10.13;;;19.70;89.10;;;;;;5090281;28;20066;-73
2022/05/07 12:55:55;;;;;;;13.00;6.53;;;19.70;89.00;;;;;;5091642;28;20027;-72
2022/05/07 12:58:20;;;;;;;11.25;6.13;;;19.70;89.10;;;;;;5089420;28;20578;-72
2022/05/07 13:00:46;;;;;;;7.80;4.57;;;19.70;89.10;;;;;;5090651;28;20044;-72
2022/05/07 13:03:11;;;;;;;5.68;3.13;;;19.70;88.90;;;;;;5088383;28;20048;-78
2022/05/07 13:05:38;;;;;;;7.57;4.43;;;19.70;89.00;;;;;;5094178;28;20036;-72
2022/05/07 13:08:05;;;;;;;6.57;3.55;;;19.70;88.80;;;;;;5094829;28;20028;-73
2022/05/07 13:10:32;;;;;;;5.18;3.35;;;19.70;88.40;;;;;;5094492;28;20039;-72
2022/05/07 13:12:59;;;;;;;4.35;2.42;;;19.70;87.50;;;;;;5091215;28;20082;-72
2022/05/07 13:15:29;;;;;;;5.18;2.22;;;19.80;87.80;;;;;;5093260;28;20036;-72
2022/05/07 13:17:57;;;;;;;1.92;1.25;;;19.80;88.10;;;;;;5090778;28;20079;-72
2022/05/07 13:20:24;;;;;;;6.05;2.28;;;19.80;86.90;;;;;;5089572;28;20036;-73